createdAt,value
2018-05-15T00:01:01.475Z,38.80
2018-05-15T00:03:29.576Z,38.80
2018-05-15T00:05:56.931Z,38.80
2018-05-15T00:08:24.260Z,38.80
2018-05-15T00:10:52.353Z,38.90
2018-05-15T00:13:19.682Z,38.90
2018-05-15T00:15:47.764Z,39.00
2018-05-15T00:18:15.076Z,39.00
2018-05-15T00:20:42.382Z,38.80
2018-05-15T00:23:09.708Z,38.80
2018-05-15T00:25:37.812Z,38.80
2018-05-15T00:28:05.125Z,38.80
2018-05-15T00:30:33.216Z,38.80
2018-05-15T00:33:00.529Z,38.80
2018-05-15T00:35:27.869Z,38.80
2018-05-15T00:37:55.166Z,38.70
2018-05-15T00:40:23.219Z,38.80
2018-05-15T00:42:51.317Z,38.80
2018-05-15T00:45:18.765Z,38.70
2018-05-15T00:47:46.832Z,38.60
2018-05-15T00:50:14.954Z,38.70
2018-05-15T00:55:22.603Z,38.70
2018-05-15T00:57:50.700Z,38.80
2018-05-15T01:00:18.005Z,38.70
2018-05-15T01:02:45.356Z,38.70
2018-05-15T01:05:12.633Z,38.70
2018-05-15T01:07:40.750Z,38.80
2018-05-15T01:10:08.069Z,38.70
2018-05-15T01:12:36.165Z,38.80
2018-05-15T01:15:03.539Z,38.70
2018-05-15T01:17:30.843Z,38.70
2018-05-15T01:19:58.938Z,38.80
2018-05-15T01:22:26.269Z,39.40
2018-05-15T01:24:54.361Z,38.90
2018-05-15T01:27:21.635Z,38.80
2018-05-15T01:29:48.852Z,38.90
2018-05-15T01:32:16.831Z,38.80
2018-05-15T01:34:44.087Z,38.70
2018-05-15T01:37:11.286Z,39.40
2018-05-15T01:39:38.484Z,38.90
2018-05-15T01:42:05.697Z,38.80
2018-05-15T01:44:32.934Z,38.70
2018-05-15T01:47:00.126Z,38.60
2018-05-15T01:49:27.355Z,38.60
2018-05-15T01:51:54.572Z,38.60
2018-05-15T01:54:21.782Z,38.80
2018-05-15T01:56:48.972Z,38.80
2018-05-15T01:59:16.194Z,38.80
2018-05-15T02:01:43.414Z,38.70
2018-05-15T02:04:11.420Z,39.30
2018-05-15T02:06:38.681Z,39.30
2018-05-15T02:09:05.897Z,38.60
2018-05-15T02:11:33.104Z,38.60
2018-05-15T02:14:00.320Z,38.60
2018-05-15T02:16:27.540Z,38.60
2018-05-15T02:18:55.508Z,38.60
2018-05-15T02:21:23.464Z,38.60
2018-05-15T02:23:51.455Z,38.70
2018-05-15T02:26:18.669Z,38.60
2018-05-15T02:28:45.885Z,38.60
2018-05-15T02:31:13.116Z,38.60
2018-05-15T02:33:40.323Z,38.60
2018-05-15T02:36:07.509Z,38.50
2018-05-15T02:38:34.735Z,38.50
2018-05-15T02:41:02.697Z,38.60
2018-05-15T02:43:29.922Z,38.60
2018-05-15T02:45:57.112Z,38.60
2018-05-15T02:48:25.095Z,38.60
2018-05-15T02:50:52.307Z,38.60
2018-05-15T02:53:19.547Z,38.60
2018-05-15T02:55:46.880Z,38.60
2018-05-15T02:58:14.824Z,38.60
2018-05-15T03:00:42.008Z,38.60
2018-05-15T03:03:09.224Z,38.60
2018-05-15T03:05:36.466Z,38.70
2018-05-15T03:08:03.669Z,38.70
2018-05-15T03:10:30.903Z,38.80
2018-05-15T03:12:58.132Z,38.90
2018-05-15T03:15:25.365Z,38.70
2018-05-15T03:17:52.569Z,38.70
2018-05-15T03:20:19.810Z,38.80
2018-05-15T03:22:47.039Z,38.90
2018-05-15T03:25:14.255Z,38.90
2018-05-15T03:27:42.242Z,38.90
2018-05-15T03:30:09.449Z,38.90
2018-05-15T03:32:36.679Z,39.00
2018-05-15T03:35:03.903Z,39.10
2018-05-15T03:37:31.096Z,39.40
2018-05-15T03:39:58.308Z,39.60
2018-05-15T03:42:25.540Z,39.70
2018-05-15T03:44:52.731Z,39.80
2018-05-15T03:47:19.925Z,39.90
2018-05-15T03:49:47.907Z,39.90
2018-05-15T03:52:15.143Z,39.90
2018-05-15T03:54:43.180Z,39.80
2018-05-15T03:57:10.409Z,39.80
2018-05-15T03:59:37.626Z,39.80
2018-05-15T04:02:10.682Z,39.90
2018-05-15T04:04:43.719Z,40.00
2018-05-15T04:07:16.723Z,40.00
2018-05-15T04:09:43.947Z,40.00
2018-05-15T04:12:11.168Z,40.00
2018-05-15T04:14:39.168Z,40.00
2018-05-15T04:17:06.378Z,39.90
2018-05-15T04:19:34.356Z,40.00
2018-05-15T04:22:02.352Z,40.00
2018-05-15T04:24:29.595Z,40.00
2018-05-15T04:26:56.807Z,39.70
2018-05-15T04:29:24.021Z,39.50
2018-05-15T04:31:51.252Z,39.40
2018-05-15T04:34:18.468Z,39.20
2018-05-15T04:36:45.697Z,39.00
2018-05-15T04:39:12.909Z,38.90
2018-05-15T04:41:40.129Z,38.90
2018-05-15T04:44:08.106Z,38.90
2018-05-15T04:46:35.332Z,38.90
2018-05-15T04:49:02.553Z,38.90
2018-05-15T04:51:29.761Z,39.00
2018-05-15T04:53:57.129Z,39.10
2018-05-15T04:56:24.353Z,39.10
2018-05-15T04:58:52.323Z,39.10
2018-05-15T05:01:19.657Z,39.10
2018-05-15T05:03:46.868Z,39.10
2018-05-15T05:06:14.065Z,39.30
2018-05-15T05:08:42.067Z,39.20
2018-05-15T05:13:43.708Z,39.60
2018-05-15T05:16:11.690Z,39.50
2018-05-15T05:18:38.887Z,39.50
2018-05-15T05:21:06.200Z,39.50
2018-05-15T05:23:33.327Z,39.40
2018-05-15T05:26:01.326Z,39.20
2018-05-15T05:28:28.532Z,39.20
2018-05-15T05:30:55.770Z,39.30
2018-05-15T05:33:23.092Z,39.20
2018-05-15T05:35:50.221Z,39.20
2018-05-15T05:38:17.404Z,39.30
2018-05-15T05:40:44.603Z,39.40
2018-05-15T05:43:12.560Z,39.30
2018-05-15T05:45:45.104Z,39.10
2018-05-15T05:48:12.386Z,39.10
2018-05-15T05:50:40.407Z,39.00
2018-05-15T05:53:07.608Z,38.90
2018-05-15T05:55:34.795Z,38.90
2018-05-15T05:58:02.783Z,39.20
2018-05-15T06:00:29.987Z,39.10
2018-05-15T06:02:57.936Z,39.30
2018-05-15T06:05:25.145Z,39.30
2018-05-15T06:07:52.351Z,39.50
2018-05-15T06:10:20.344Z,39.60
2018-05-15T06:12:48.471Z,39.60
2018-05-15T06:15:15.659Z,39.60
2018-05-15T06:17:42.847Z,39.90
2018-05-15T06:20:10.092Z,39.60
2018-05-15T06:22:37.317Z,39.40
2018-05-15T06:25:04.588Z,39.50
2018-05-15T06:27:31.874Z,39.50
2018-05-15T06:29:59.036Z,39.50
2018-05-15T06:32:27.025Z,40.00
2018-05-15T06:34:54.227Z,40.60
2018-05-15T06:37:21.467Z,40.00
2018-05-15T06:39:48.715Z,40.10
2018-05-15T06:42:15.938Z,40.00
2018-05-15T06:44:43.174Z,39.60
2018-05-15T06:47:10.395Z,39.40
2018-05-15T06:49:37.716Z,39.50
2018-05-15T06:52:04.940Z,39.60
2018-05-15T06:54:32.181Z,39.60
2018-05-15T06:56:59.398Z,39.80
2018-05-15T06:59:26.650Z,40.10
2018-05-15T07:01:53.965Z,40.60
2018-05-15T07:04:21.885Z,42.90
2018-05-15T07:06:49.863Z,43.00
2018-05-15T07:09:17.971Z,43.00
2018-05-15T07:11:45.181Z,43.00
2018-05-15T07:14:13.203Z,43.20
2018-05-15T07:16:40.412Z,43.20
2018-05-15T07:19:07.906Z,43.40
2018-05-15T07:21:35.114Z,43.20
2018-05-15T07:24:02.344Z,42.90
2018-05-15T07:26:30.343Z,43.60
2018-05-15T07:28:57.574Z,43.50
2018-05-15T07:31:25.566Z,43.90
2018-05-15T07:33:52.789Z,43.90
2018-05-15T07:36:20.760Z,43.90
2018-05-15T07:38:48.731Z,43.70
2018-05-15T07:41:16.747Z,43.50
2018-05-15T07:43:43.960Z,43.40
2018-05-15T07:46:11.151Z,43.40
2018-05-15T07:48:38.360Z,43.80
2018-05-15T07:51:05.612Z,43.60
2018-05-15T07:53:32.817Z,44.00
2018-05-15T07:56:00.019Z,44.60
2018-05-15T07:58:27.237Z,44.50
2018-05-15T08:00:55.251Z,44.80
2018-05-15T08:03:22.472Z,44.70
2018-05-15T08:05:50.457Z,45.30
2018-05-15T08:08:17.700Z,45.30
2018-05-15T08:10:44.923Z,45.70
2018-05-15T08:13:12.125Z,45.80
2018-05-15T08:15:39.348Z,45.60
2018-05-15T08:18:06.551Z,45.60
2018-05-15T08:20:33.787Z,45.70
2018-05-15T08:23:01.019Z,45.70
2018-05-15T08:25:28.199Z,45.80
2018-05-15T08:27:55.424Z,46.20
2018-05-15T08:30:22.689Z,46.20
2018-05-15T08:32:49.883Z,46.10
2018-05-15T08:35:17.893Z,46.10
2018-05-15T08:37:45.140Z,46.10
2018-05-15T08:40:12.378Z,46.10
2018-05-15T08:42:39.638Z,46.20
2018-05-15T08:45:06.917Z,46.30
2018-05-15T08:47:34.151Z,46.20
2018-05-15T08:50:01.353Z,46.30
2018-05-15T08:52:29.362Z,46.40
2018-05-15T08:54:56.576Z,46.40
2018-05-15T08:57:24.567Z,46.40
2018-05-15T08:59:51.830Z,46.30
2018-05-15T09:02:19.078Z,46.20
2018-05-15T09:04:46.327Z,46.20
2018-05-15T09:07:13.562Z,46.30
2018-05-15T09:09:40.824Z,46.40
2018-05-15T09:12:08.080Z,46.50
2018-05-15T09:14:35.330Z,46.60
2018-05-15T09:17:02.525Z,46.70
2018-05-15T09:19:29.770Z,46.80
2018-05-15T09:21:57.018Z,46.80
2018-05-15T09:24:24.280Z,47.20
2018-05-15T09:26:51.535Z,47.50
2018-05-15T09:29:18.761Z,47.60
2018-05-15T09:31:46.036Z,47.60
2018-05-15T09:34:13.303Z,47.60
2018-05-15T09:36:41.311Z,47.40
2018-05-15T09:39:08.611Z,47.50
2018-05-15T09:41:35.861Z,47.50
2018-05-15T09:44:03.148Z,47.50
2018-05-15T09:46:30.402Z,47.50
2018-05-15T09:48:57.636Z,47.60
2018-05-15T09:51:25.698Z,48.00
2018-05-15T09:53:53.720Z,48.80
2018-05-15T09:56:21.014Z,48.10
2018-05-15T09:58:48.350Z,48.50
2018-05-15T10:01:15.592Z,49.20
2018-05-15T10:03:42.915Z,49.30
2018-05-15T10:06:10.336Z,49.30
2018-05-15T10:08:38.363Z,49.50
2018-05-15T10:11:05.601Z,49.50
2018-05-15T10:13:32.854Z,49.40
2018-05-15T10:16:00.102Z,49.60
2018-05-15T10:18:27.490Z,49.80
2018-05-15T10:20:54.703Z,49.80
2018-05-15T10:23:21.962Z,50.20
2018-05-15T10:25:49.183Z,50.50
2018-05-15T10:28:16.413Z,50.70
2018-05-15T10:30:44.391Z,50.70
2018-05-15T10:33:12.377Z,50.70
2018-05-15T10:35:39.595Z,50.70
2018-05-15T10:38:07.605Z,50.80
2018-05-15T10:40:35.556Z,50.90
2018-05-15T10:43:02.792Z,50.90
2018-05-15T10:45:30.813Z,50.70
2018-05-15T10:47:58.039Z,50.70
2018-05-15T10:50:25.247Z,50.80
2018-05-15T10:52:52.502Z,50.80
2018-05-15T10:55:20.507Z,51.10
2018-05-15T10:57:47.747Z,51.10
2018-05-15T11:00:14.954Z,51.20
2018-05-15T11:02:42.167Z,51.50
2018-05-15T11:05:09.393Z,51.70
2018-05-15T11:07:36.645Z,51.80
2018-05-15T11:10:03.890Z,52.10
2018-05-15T11:12:31.873Z,52.60
2018-05-15T11:14:59.120Z,52.60
2018-05-15T11:17:26.370Z,52.70
2018-05-15T11:20:12.408Z,52.70
2018-05-15T11:22:45.387Z,52.80
2018-05-15T11:25:12.665Z,52.70
2018-05-15T11:27:40.819Z,52.80
2018-05-15T11:30:08.040Z,52.70
2018-05-15T11:32:35.476Z,52.90
2018-05-15T11:35:02.628Z,52.90
2018-05-15T11:37:29.816Z,52.90
2018-05-15T11:39:57.008Z,53.40
2018-05-15T11:42:24.231Z,52.60
2018-05-15T11:44:51.435Z,52.30
2018-05-15T11:47:18.691Z,52.10
2018-05-15T11:49:46.636Z,52.10
2018-05-15T11:52:14.965Z,52.20
2018-05-15T11:54:41.226Z,51.90
2018-05-15T11:57:08.382Z,51.80
2018-05-15T11:59:36.356Z,52.10
2018-05-15T12:02:04.373Z,52.00
2018-05-15T12:04:31.599Z,52.00
2018-05-15T12:06:58.784Z,52.00
2018-05-15T12:09:25.999Z,52.00
2018-05-15T12:11:53.214Z,51.90
2018-05-15T12:14:21.223Z,51.70
2018-05-15T12:16:48.426Z,51.70
2018-05-15T12:19:15.646Z,51.60
2018-05-15T12:21:42.859Z,51.50
2018-05-15T12:24:10.070Z,51.50
2018-05-15T12:26:37.255Z,51.70
2018-05-15T12:29:04.476Z,51.80
2018-05-15T12:31:32.464Z,51.70
2018-05-15T12:34:00.453Z,51.60
2018-05-15T12:36:27.683Z,51.60
2018-05-15T12:38:55.636Z,51.40
2018-05-15T12:41:23.697Z,51.30
2018-05-15T12:43:50.890Z,52.00
2018-05-15T12:46:18.118Z,51.20
2018-05-15T12:48:46.216Z,51.50
2018-05-15T12:51:13.391Z,51.40
2018-05-15T12:53:40.584Z,51.50
2018-05-15T12:56:08.551Z,51.60
2018-05-15T12:58:36.519Z,51.70
2018-05-15T13:01:04.510Z,52.30
2018-05-15T13:03:31.718Z,51.70
2018-05-15T13:05:58.963Z,51.70
2018-05-15T13:08:26.147Z,51.80
2018-05-15T13:10:54.118Z,51.70
2018-05-15T13:13:21.299Z,51.60
2018-05-15T13:15:49.278Z,51.50
2018-05-15T13:18:16.546Z,51.50
2018-05-15T13:20:43.760Z,51.30
2018-05-15T13:23:10.987Z,51.50
2018-05-15T13:25:38.172Z,51.50
2018-05-15T13:28:05.371Z,51.40
2018-05-15T13:30:33.355Z,51.20
2018-05-15T13:33:00.579Z,51.20
2018-05-15T13:35:28.709Z,51.10
2018-05-15T13:37:55.868Z,51.10
2018-05-15T13:40:23.084Z,51.10
2018-05-15T13:42:50.308Z,51.10
2018-05-15T13:45:18.256Z,51.10
2018-05-15T13:47:45.436Z,51.10
2018-05-15T13:50:13.434Z,51.10
2018-05-15T13:52:40.626Z,51.10
2018-05-15T13:55:07.812Z,51.00
2018-05-15T13:57:40.930Z,51.00
2018-05-15T14:00:08.860Z,51.10
2018-05-15T14:02:36.868Z,51.30
2018-05-15T14:05:04.122Z,51.30
2018-05-15T14:07:31.352Z,51.40
2018-05-15T14:09:58.548Z,51.40
2018-05-15T14:12:25.765Z,51.30
2018-05-15T14:14:53.766Z,51.60
2018-05-15T14:17:20.985Z,51.60
2018-05-15T14:19:48.167Z,51.60
2018-05-15T14:22:15.348Z,51.60
2018-05-15T14:24:43.320Z,51.40
2018-05-15T14:27:10.548Z,51.40
2018-05-15T14:29:38.547Z,51.20
2018-05-15T14:32:05.785Z,51.20
2018-05-15T14:34:33.756Z,51.10
2018-05-15T14:37:01.786Z,50.90
2018-05-15T14:39:28.991Z,50.90
2018-05-15T14:42:02.114Z,50.70
2018-05-15T14:44:29.324Z,50.40
2018-05-15T14:46:56.524Z,50.30
2018-05-15T14:49:23.755Z,50.20
2018-05-15T14:51:50.951Z,50.20
2018-05-15T14:54:18.904Z,50.20
2018-05-15T14:56:46.130Z,50.20
2018-05-15T14:59:13.344Z,50.10
2018-05-15T15:01:40.531Z,50.30
2018-05-15T15:04:07.716Z,50.40
2018-05-15T15:06:35.689Z,50.50
2018-05-15T15:09:03.719Z,50.60
2018-05-15T15:11:30.907Z,50.50
2018-05-15T15:13:58.865Z,50.30
2018-05-15T15:16:26.095Z,50.30
2018-05-15T15:18:53.330Z,50.30
2018-05-15T15:21:20.525Z,50.20
2018-05-15T15:23:48.508Z,50.10
2018-05-15T15:26:15.743Z,50.10
2018-05-15T15:28:43.687Z,49.90
2018-05-15T15:31:10.919Z,49.80
2018-05-15T15:33:38.132Z,49.80
2018-05-15T15:36:05.404Z,49.90
2018-05-15T15:38:32.650Z,49.70
2018-05-15T15:40:59.895Z,49.70
2018-05-15T15:43:27.122Z,49.90
2018-05-15T15:45:55.096Z,49.70
2018-05-15T15:48:22.280Z,49.70
2018-05-15T15:50:49.507Z,49.70
2018-05-15T15:53:16.697Z,49.80
2018-05-15T15:55:43.894Z,50.00
2018-05-15T15:58:11.131Z,49.80
2018-05-15T16:00:38.370Z,49.70
2018-05-15T16:03:05.585Z,49.60
2018-05-15T16:05:32.807Z,49.50
2018-05-15T16:08:00.017Z,49.40
2018-05-15T16:10:27.224Z,49.50
2018-05-15T16:12:54.498Z,49.40
2018-05-15T16:15:21.725Z,49.30
2018-05-15T16:17:48.913Z,49.20
2018-05-15T16:20:16.092Z,49.10
2018-05-15T16:22:44.170Z,49.20
2018-05-15T16:25:11.347Z,49.10
2018-05-15T16:27:38.561Z,49.20
2018-05-15T16:30:06.552Z,49.20
2018-05-15T16:32:33.794Z,49.20
2018-05-15T16:35:01.029Z,49.20
2018-05-15T16:37:28.273Z,49.30
2018-05-15T16:39:56.242Z,49.40
2018-05-15T16:42:24.228Z,49.40
2018-05-15T16:44:51.435Z,49.30
2018-05-15T16:47:18.701Z,49.40
2018-05-15T16:49:45.909Z,49.50
2018-05-15T16:52:13.108Z,49.50
2018-05-15T16:54:41.105Z,49.60
2018-05-15T16:57:08.313Z,49.60
2018-05-15T16:59:35.542Z,49.80
2018-05-15T17:02:02.773Z,50.10
2018-05-15T17:04:29.966Z,50.20
2018-05-15T17:06:57.172Z,50.20
2018-05-15T17:09:24.410Z,50.20
2018-05-15T17:11:51.631Z,50.20
2018-05-15T17:14:18.832Z,50.30
2018-05-15T17:16:46.051Z,50.30
2018-05-15T17:19:13.281Z,50.40
2018-05-15T17:21:41.314Z,49.70
2018-05-15T17:24:08.546Z,49.70
2018-05-15T17:26:35.772Z,49.50
2018-05-15T17:29:02.978Z,50.00
2018-05-15T17:31:30.300Z,49.20
2018-05-15T17:33:57.430Z,49.10
2018-05-15T17:36:24.629Z,49.20
2018-05-15T17:38:51.849Z,49.10
2018-05-15T17:41:19.083Z,49.10
2018-05-15T17:43:46.272Z,49.00
2018-05-15T17:46:13.578Z,49.00
2018-05-15T17:48:40.780Z,49.00
2018-05-15T17:51:08.028Z,49.00
2018-05-15T17:53:35.247Z,49.00
2018-05-15T17:56:02.432Z,49.00
2018-05-15T17:58:29.651Z,49.00
2018-05-15T18:00:56.870Z,48.90
2018-05-15T18:03:24.090Z,48.90
2018-05-15T18:05:51.295Z,48.90
2018-05-15T18:08:18.526Z,48.90
2018-05-15T18:10:45.761Z,48.90
2018-05-15T18:13:13.739Z,48.80
2018-05-15T18:15:41.707Z,48.90
2018-05-15T18:18:08.970Z,48.80
2018-05-15T18:20:36.198Z,48.90
2018-05-15T18:23:04.207Z,49.10
2018-05-15T18:25:31.485Z,49.00
2018-05-15T18:27:58.692Z,49.10
2018-05-15T18:30:25.912Z,49.10
2018-05-15T18:32:54.033Z,49.80
2018-05-15T18:35:21.208Z,49.20
2018-05-15T18:37:48.391Z,49.20
2018-05-15T18:40:16.382Z,49.30
2018-05-15T18:42:43.599Z,49.20
2018-05-15T18:45:11.571Z,49.30
2018-05-15T18:47:39.566Z,49.30
2018-05-15T18:50:06.856Z,49.30
2018-05-15T18:52:34.044Z,49.30
2018-05-15T18:55:02.015Z,49.30
2018-05-15T18:57:30.025Z,49.30
2018-05-15T18:59:57.288Z,49.30
2018-05-15T19:02:24.472Z,49.30
2018-05-15T19:04:51.703Z,49.30
2018-05-15T19:07:18.927Z,48.80
2018-05-15T19:09:46.116Z,49.20
2018-05-15T19:12:13.324Z,49.20
2018-05-15T19:14:40.532Z,49.20
2018-05-15T19:17:08.476Z,49.20
2018-05-15T19:19:35.712Z,49.20
2018-05-15T19:22:02.991Z,49.20
2018-05-15T19:24:30.229Z,49.10
2018-05-15T19:26:57.603Z,49.10
2018-05-15T19:29:24.980Z,49.10
2018-05-15T19:31:52.579Z,49.00
2018-05-15T19:34:24.802Z,48.90
2018-05-15T19:37:08.335Z,48.90
2018-05-15T19:39:42.760Z,48.70
2018-05-15T19:42:11.582Z,48.70
2018-05-15T19:44:39.546Z,48.70
2018-05-15T19:47:07.516Z,48.70
2018-05-15T19:49:35.499Z,48.70
2018-05-15T19:52:03.448Z,48.70
2018-05-15T19:54:31.511Z,48.60
2018-05-15T19:56:59.569Z,48.60
2018-05-15T19:59:27.537Z,48.60
2018-05-15T20:01:55.565Z,48.60
2018-05-15T20:04:24.283Z,48.50
2018-05-15T20:06:52.284Z,48.50
2018-05-15T20:09:20.251Z,48.50
2018-05-15T20:11:48.230Z,48.40
2018-05-15T20:14:16.101Z,48.40
2018-05-15T20:16:43.957Z,48.40
2018-05-15T20:19:11.555Z,48.30
2018-05-15T20:21:39.011Z,48.30
2018-05-15T20:24:06.382Z,48.20
2018-05-15T20:26:33.607Z,48.20
2018-05-15T20:29:01.651Z,48.10
2018-05-15T20:31:28.935Z,48.10
2018-05-15T20:33:57.309Z,48.10
2018-05-15T20:36:25.303Z,48.50
2018-05-15T20:38:52.508Z,47.90
2018-05-15T20:41:19.769Z,47.80
2018-05-15T20:43:46.956Z,47.60
2018-05-15T20:46:14.171Z,47.40
2018-05-15T20:48:41.411Z,47.10
2018-05-15T20:51:08.650Z,47.00
2018-05-15T20:53:35.848Z,46.90
2018-05-15T20:56:04.010Z,46.70
2018-05-15T20:58:32.091Z,46.70
2018-05-15T21:00:59.316Z,46.70
2018-05-15T21:03:26.542Z,46.60
2018-05-15T21:05:54.599Z,46.60
2018-05-15T21:08:21.844Z,46.50
2018-05-15T21:10:49.106Z,46.50
2018-05-15T21:13:16.321Z,46.40
2018-05-15T21:15:43.512Z,46.40
2018-05-15T21:18:10.719Z,46.40
2018-05-15T21:20:37.964Z,46.40
2018-05-15T21:23:05.932Z,46.40
2018-05-15T21:25:33.947Z,46.40
2018-05-15T21:28:01.165Z,46.30
2018-05-15T21:30:28.383Z,46.30
2018-05-15T21:32:56.359Z,46.30
2018-05-15T21:35:24.343Z,46.30
2018-05-15T21:37:51.566Z,46.20
2018-05-15T21:40:18.801Z,46.20
2018-05-15T21:42:45.991Z,46.20
2018-05-15T21:45:13.214Z,46.20
2018-05-15T21:47:40.421Z,46.20
2018-05-15T21:50:07.649Z,46.80
2018-05-15T21:52:34.876Z,46.20
2018-05-15T21:55:02.889Z,46.30
2018-05-15T21:57:30.126Z,46.20
2018-05-15T21:59:57.407Z,46.20
2018-05-15T22:02:24.624Z,46.20
2018-05-15T22:04:51.836Z,46.20
2018-05-15T22:07:19.064Z,46.20
2018-05-15T22:09:46.295Z,46.20
2018-05-15T22:12:19.545Z,46.20
2018-05-15T22:14:53.334Z,46.10
2018-05-15T22:17:27.256Z,46.10
2018-05-15T22:20:01.140Z,46.20
2018-05-15T22:22:28.115Z,46.10
2018-05-15T22:24:56.093Z,46.20
2018-05-15T22:27:23.296Z,46.20
2018-05-15T22:29:50.503Z,46.20
2018-05-15T22:32:17.738Z,46.20
2018-05-15T22:34:44.938Z,46.20
2018-05-15T22:37:12.126Z,46.20
2018-05-15T22:39:40.163Z,46.30
2018-05-15T22:42:07.372Z,46.30
2018-05-15T22:44:34.605Z,46.30
2018-05-15T22:47:02.566Z,46.30
2018-05-15T22:49:30.530Z,46.40
2018-05-15T22:51:58.538Z,46.40
2018-05-15T22:54:25.749Z,46.30
2018-05-15T22:56:53.747Z,46.40
2018-05-15T22:59:20.987Z,46.40
2018-05-15T23:01:48.206Z,46.40
2018-05-15T23:04:15.397Z,46.30
2018-05-15T23:06:42.604Z,46.20
2018-05-15T23:09:09.818Z,46.20
2018-05-15T23:11:37.024Z,45.90
2018-05-15T23:14:05.003Z,45.90
2018-05-15T23:16:32.263Z,45.90
2018-05-15T23:18:59.471Z,45.90
2018-05-15T23:21:26.688Z,45.90
2018-05-15T23:23:53.907Z,45.80
2018-05-15T23:26:21.148Z,45.80
2018-05-15T23:28:48.367Z,45.80
2018-05-15T23:31:15.631Z,45.70
2018-05-15T23:33:43.604Z,46.20
2018-05-15T23:36:11.618Z,45.70
2018-05-15T23:38:38.882Z,45.70
2018-05-15T23:41:06.116Z,45.50
2018-05-15T23:43:33.325Z,45.50
2018-05-15T23:46:01.313Z,45.50
2018-05-15T23:48:28.567Z,45.50
2018-05-15T23:50:55.794Z,45.50
2018-05-15T23:53:23.766Z,45.60
2018-05-15T23:55:51.750Z,45.60
2018-05-15T23:58:18.936Z,45.60
